createdAt,value
2019-01-04T00:00:34.433Z,81.56
2019-01-04T00:02:43.520Z,81.73
2019-01-04T00:04:49.258Z,81.71
2019-01-04T00:06:54.844Z,81.84
2019-01-04T00:09:00.535Z,82.09
2019-01-04T00:11:06.576Z,81.86
2019-01-04T00:13:12.385Z,81.88
2019-01-04T00:15:19.169Z,82.03
2019-01-04T00:17:28.644Z,82.14
2019-01-04T00:19:53.433Z,82.21
2019-01-04T00:22:01.192Z,82.50
2019-01-04T00:24:07.006Z,82.74
2019-01-04T00:28:56.450Z,82.62
2019-01-04T00:31:21.548Z,83.02
2019-01-04T00:33:38.890Z,83.21
2019-01-04T00:36:03.625Z,83.49
2019-01-04T00:38:28.319Z,83.68
2019-01-04T00:40:34.106Z,83.65
2019-01-04T00:42:40.448Z,83.46
2019-01-04T00:44:47.335Z,83.54
2019-01-04T00:46:53.648Z,83.40
2019-01-04T00:49:02.017Z,83.44
2019-01-04T00:51:07.710Z,83.28
2019-01-04T00:53:32.507Z,83.27
2019-01-04T00:56:22.673Z,82.96
2019-01-04T00:58:48.822Z,82.30
2019-01-04T01:04:53.084Z,81.64
2019-01-04T01:07:56.638Z,80.86
2019-01-04T01:10:59.437Z,80.53
2019-01-04T01:14:02.199Z,80.58
2019-01-04T01:16:39.247Z,80.61
2019-01-04T01:19:42.027Z,80.74
2019-01-04T01:22:24.601Z,80.60
2019-01-04T01:25:27.728Z,80.53
2019-01-04T01:28:01.500Z,80.50
2019-01-04T01:31:04.243Z,80.39
2019-01-04T01:33:30.826Z,80.25
2019-01-04T01:39:23.283Z,80.89
2019-01-04T01:42:26.044Z,80.84
2019-01-04T01:45:29.746Z,80.57
2019-01-04T01:48:06.059Z,80.36
2019-01-04T01:50:36.697Z,80.42
2019-01-04T01:53:01.748Z,80.55
2019-01-04T01:55:45.243Z,80.29
2019-01-04T01:58:10.225Z,80.28
2019-01-04T02:00:27.585Z,80.14
2019-01-04T02:02:52.822Z,80.48
2019-01-04T02:05:10.022Z,80.89
2019-01-04T02:07:34.724Z,80.84
2019-01-04T02:09:59.411Z,80.51
2019-01-04T02:12:17.759Z,79.59
2019-01-04T02:14:42.869Z,80.27
2019-01-04T02:17:00.579Z,80.50
2019-01-04T02:19:25.529Z,80.23
2019-01-04T02:21:43.872Z,79.19
2019-01-04T02:24:09.499Z,79.39
2019-01-04T02:26:34.196Z,79.83
2019-01-04T02:28:59.247Z,79.69
2019-01-04T02:31:26.654Z,80.33
2019-01-04T02:33:33.195Z,80.43
2019-01-04T02:38:17.093Z,80.36
2019-01-04T02:40:41.732Z,80.62
2019-01-04T02:42:58.599Z,80.62
2019-01-04T02:45:16.963Z,80.97
2019-01-04T02:47:34.562Z,80.97
2019-01-04T02:49:59.458Z,80.65
2019-01-04T02:52:24.191Z,80.50
2019-01-04T02:54:41.853Z,80.26
2019-01-04T02:59:34.412Z,80.12
2019-01-04T03:01:59.624Z,80.14
2019-01-04T03:04:05.671Z,79.52
2019-01-04T03:06:30.437Z,79.08
2019-01-04T03:08:48.334Z,79.42
2019-01-04T03:11:13.209Z,80.34
2019-01-04T03:13:30.759Z,80.74
2019-01-04T03:15:55.395Z,81.13
2019-01-04T03:18:14.489Z,81.21
2019-01-04T03:20:20.280Z,81.09
2019-01-04T03:22:28.731Z,81.21
2019-01-04T03:24:53.449Z,81.20
2019-01-04T03:27:11.017Z,81.18
2019-01-04T03:30:01.365Z,81.27
2019-01-04T03:31:58.342Z,81.16
2019-01-04T03:34:37.139Z,81.26
2019-01-04T03:36:42.248Z,81.20
2019-01-04T03:39:07.119Z,80.96
2019-01-04T03:41:12.772Z,79.22
2019-01-04T03:43:37.518Z,79.03
2019-01-04T03:45:54.432Z,79.54
2019-01-04T03:48:19.133Z,80.24
2019-01-04T03:50:24.782Z,79.95
2019-01-04T03:52:30.914Z,80.27
2019-01-04T03:54:55.616Z,80.52
2019-01-04T03:57:20.325Z,81.49
2019-01-04T03:59:45.075Z,81.69
2019-01-04T04:04:40.029Z,81.20
2019-01-04T04:06:57.364Z,81.12
2019-01-04T04:09:22.146Z,80.96
2019-01-04T04:11:39.319Z,79.88
2019-01-04T04:13:56.902Z,79.60
2019-01-04T04:16:42.279Z,79.09
2019-01-04T04:19:02.311Z,78.88
2019-01-04T04:21:19.976Z,80.09
2019-01-04T04:23:44.709Z,80.23
2019-01-04T04:26:02.823Z,80.14
2019-01-04T04:28:27.675Z,80.06
2019-01-04T04:30:45.257Z,80.49
2019-01-04T04:33:09.946Z,80.59
2019-01-04T04:35:27.816Z,80.52
2019-01-04T04:37:52.528Z,79.96
2019-01-04T04:40:17.610Z,79.85
2019-01-04T04:42:42.294Z,80.34
2019-01-04T04:44:49.105Z,80.79
2019-01-04T04:47:07.527Z,80.82
2019-01-04T04:49:32.308Z,80.94
2019-01-04T04:52:11.622Z,81.10
2019-01-04T04:54:17.835Z,81.30
2019-01-04T04:56:42.602Z,81.32
2019-01-04T04:58:59.574Z,81.43
2019-01-04T05:01:38.738Z,81.10
2019-01-04T05:03:44.401Z,81.12
2019-01-04T05:06:10.822Z,81.46
2019-01-04T05:08:35.556Z,81.61
2019-01-04T05:11:00.388Z,81.47
2019-01-04T05:13:25.482Z,81.82
2019-01-04T05:16:04.679Z,82.12
2019-01-04T05:18:09.511Z,82.23
2019-01-04T05:20:34.213Z,82.00
2019-01-04T05:22:51.359Z,81.95
2019-01-04T05:25:35.015Z,82.24
2019-01-04T05:27:52.553Z,81.97
2019-01-04T05:30:17.221Z,82.17
2019-01-04T05:33:02.393Z,82.17
2019-01-04T05:35:08.545Z,81.75
2019-01-04T05:37:14.283Z,81.87
2019-01-04T05:39:19.957Z,81.92
2019-01-04T05:44:28.144Z,81.45
2019-01-04T05:46:53.536Z,81.21
2019-01-04T05:49:10.562Z,81.10
2019-01-04T05:51:35.447Z,81.52
2019-01-04T05:53:53.062Z,81.44
2019-01-04T05:56:17.766Z,81.09
2019-01-04T05:58:42.917Z,81.51
2019-01-04T06:01:00.828Z,81.77
2019-01-04T06:03:44.335Z,81.88
2019-01-04T06:06:01.243Z,81.98
2019-01-04T06:08:26.287Z,82.29
2019-01-04T06:10:35.071Z,82.33
2019-01-04T06:12:41.050Z,81.71
2019-01-04T06:15:09.036Z,81.63
2019-01-04T06:17:33.754Z,81.73
2019-01-04T06:19:39.655Z,81.29
2019-01-04T06:22:04.880Z,80.62
2019-01-04T06:24:23.296Z,80.62
2019-01-04T06:29:32.619Z,81.39
2019-01-04T06:31:57.257Z,81.44
2019-01-04T06:34:02.921Z,81.13
2019-01-04T06:36:30.078Z,81.03
2019-01-04T06:38:50.977Z,81.06
2019-01-04T06:41:15.787Z,80.43
2019-01-04T06:43:33.409Z,78.53
2019-01-04T06:45:58.824Z,78.87
2019-01-04T06:48:15.997Z,78.12
2019-01-04T06:52:43.200Z,79.20
2019-01-04T06:55:30.609Z,79.45
2019-01-04T06:57:36.606Z,79.21
2019-01-04T07:00:03.101Z,79.22
2019-01-04T07:02:27.784Z,79.21
2019-01-04T07:04:33.751Z,79.16
2019-01-04T07:11:23.714Z,78.97
2019-01-04T07:13:48.426Z,78.98
2019-01-04T07:16:05.301Z,78.38
2019-01-04T07:18:30.126Z,78.55
2019-01-04T07:20:57.880Z,77.64
2019-01-04T07:25:53.170Z,77.95
2019-01-04T07:28:01.967Z,77.86
2019-01-04T07:30:08.160Z,78.29
2019-01-04T07:32:33.045Z,78.70
2019-01-04T07:34:38.810Z,78.11
2019-01-04T07:36:44.828Z,78.83
2019-01-04T07:39:28.507Z,79.11
2019-01-04T07:41:53.554Z,79.41
2019-01-04T07:44:10.842Z,80.01
2019-01-04T07:46:38.974Z,80.00
2019-01-04T07:49:04.235Z,79.96
2019-01-04T07:51:30.928Z,80.64
2019-01-04T07:53:48.956Z,81.14
2019-01-04T07:56:14.418Z,81.26
2019-01-04T07:58:41.155Z,81.69
2019-01-04T08:01:06.215Z,82.07
2019-01-04T08:03:30.945Z,82.55
2019-01-04T08:06:00.975Z,83.14
2019-01-04T08:08:07.526Z,83.55
2019-01-04T08:10:16.021Z,83.73
2019-01-04T08:12:22.836Z,84.10
2019-01-04T08:14:28.641Z,84.34
2019-01-04T08:16:34.354Z,84.41
2019-01-04T08:19:17.950Z,84.43
2019-01-04T08:21:23.638Z,84.39
2019-01-04T08:23:48.389Z,84.47
2019-01-04T08:25:54.337Z,84.57
2019-01-04T08:28:06.346Z,84.27
2019-01-04T08:32:42.648Z,85.05
2019-01-04T08:34:48.796Z,84.91
2019-01-04T08:36:55.596Z,84.96
2019-01-04T08:39:20.593Z,85.12
2019-01-04T08:41:26.397Z,85.10
2019-01-04T08:43:35.061Z,85.46
2019-01-04T08:45:45.579Z,85.62
2019-01-04T08:48:10.977Z,85.80
2019-01-04T08:50:58.117Z,85.82
2019-01-04T08:53:04.631Z,86.01
2019-01-04T08:55:31.824Z,86.06
2019-01-04T08:57:58.876Z,86.21
2019-01-04T09:00:25.947Z,86.35
2019-01-04T09:02:31.692Z,86.34
2019-01-04T09:05:15.472Z,86.20
2019-01-04T09:08:00.553Z,86.23
2019-01-04T09:10:25.704Z,85.51
2019-01-04T09:12:43.057Z,85.27
2019-01-04T09:18:22.346Z,84.93
2019-01-04T09:20:27.982Z,85.15
2019-01-04T09:22:53.039Z,85.34
2019-01-04T09:24:59.498Z,85.04
2019-01-04T09:30:03.109Z,84.61
2019-01-04T09:32:27.837Z,84.47
2019-01-04T09:34:45.608Z,84.54
2019-01-04T09:39:46.534Z,84.72
2019-01-04T09:42:08.322Z,84.86
2019-01-04T09:44:14.158Z,84.67
2019-01-04T09:46:38.967Z,84.60
2019-01-04T09:48:56.217Z,84.60
2019-01-04T09:51:21.184Z,84.73
2019-01-04T09:53:27.335Z,84.74
2019-01-04T09:55:33.604Z,84.93
2019-01-04T09:57:58.407Z,84.63
2019-01-04T10:00:08.447Z,83.61
2019-01-04T10:02:14.404Z,83.54
2019-01-04T10:04:20.086Z,83.56
2019-01-04T10:06:44.822Z,83.89
2019-01-04T10:09:03.106Z,84.36
2019-01-04T10:11:08.811Z,83.01
2019-01-04T10:13:14.599Z,83.39
2019-01-04T10:15:39.858Z,84.01
2019-01-04T10:17:45.802Z,84.40
2019-01-04T10:19:51.721Z,84.51
2019-01-04T10:21:57.851Z,84.37
2019-01-04T10:24:22.794Z,84.31
2019-01-04T10:27:06.537Z,84.41
2019-01-04T10:29:25.195Z,83.71
2019-01-04T10:31:30.865Z,83.55
2019-01-04T10:33:36.867Z,83.61
2019-01-04T10:35:42.609Z,82.72
2019-01-04T10:37:49.158Z,82.56
2019-01-04T10:39:55.249Z,83.01
2019-01-04T10:42:01.294Z,83.27
2019-01-04T10:44:26.246Z,83.27
2019-01-04T10:46:51.131Z,82.82
2019-01-04T10:48:58.628Z,83.08
2019-01-04T10:51:05.316Z,83.22
2019-01-04T10:53:11.695Z,83.02
2019-01-04T10:55:20.797Z,82.75
2019-01-04T10:57:39.404Z,81.65
2019-01-04T10:59:45.784Z,81.51
2019-01-04T11:01:53.924Z,81.51
2019-01-04T11:04:19.521Z,82.04
2019-01-04T11:06:47.003Z,82.55
2019-01-04T11:09:06.906Z,82.05
2019-01-04T11:11:12.785Z,82.25
2019-01-04T11:13:39.268Z,82.07
2019-01-04T11:15:56.935Z,81.82
2019-01-04T11:18:21.988Z,82.31
2019-01-04T11:20:48.518Z,82.48
2019-01-04T11:23:53.323Z,81.30
2019-01-04T11:26:40.450Z,81.30
2019-01-04T11:29:17.090Z,82.08
2019-01-04T11:32:13.088Z,81.32
2019-01-04T11:35:11.022Z,80.89
2019-01-04T11:37:47.196Z,81.08
2019-01-04T11:40:55.898Z,80.74
2019-01-04T11:44:07.794Z,80.47
2019-01-04T11:46:58.009Z,80.02
2019-01-04T11:49:25.799Z,80.19
2019-01-04T11:52:08.302Z,80.37
2019-01-04T11:54:35.526Z,80.05
2019-01-04T11:56:54.393Z,80.93
2019-01-04T11:59:01.046Z,81.26
2019-01-04T12:01:07.681Z,80.42
2019-01-04T12:03:13.429Z,81.03
2019-01-04T12:05:19.267Z,81.00
2019-01-04T12:07:25.774Z,80.90
2019-01-04T12:09:31.465Z,80.56
2019-01-04T12:11:37.509Z,80.77
2019-01-04T12:13:45.538Z,81.51
2019-01-04T12:16:10.921Z,81.95
2019-01-04T12:18:30.974Z,81.21
2019-01-04T12:20:37.089Z,81.15
2019-01-04T12:22:47.514Z,81.02
2019-01-04T12:25:12.959Z,81.44
2019-01-04T12:27:21.181Z,81.85
2019-01-04T12:29:29.012Z,82.14
2019-01-04T12:31:35.524Z,81.51
2019-01-04T12:33:41.190Z,80.96
2019-01-04T12:35:47.226Z,80.95
2019-01-04T12:38:11.968Z,81.75
2019-01-04T12:40:17.751Z,82.26
2019-01-04T12:42:23.518Z,82.58
2019-01-04T12:44:30.901Z,82.87
2019-01-04T12:46:38.655Z,82.85
2019-01-04T12:49:17.410Z,82.62
2019-01-04T12:51:24.324Z,82.84
2019-01-04T12:53:32.271Z,82.36
2019-01-04T12:55:38.580Z,82.47
2019-01-04T12:57:44.186Z,82.79
2019-01-04T12:59:52.063Z,83.10
2019-01-04T13:01:58.841Z,82.92
2019-01-04T13:04:05.489Z,83.04
2019-01-04T13:06:11.337Z,82.54
2019-01-04T13:08:36.398Z,82.13
2019-01-04T13:10:42.270Z,82.52
2019-01-04T13:13:11.326Z,83.03
2019-01-04T13:15:17.302Z,83.25
2019-01-04T13:17:23.455Z,83.69
2019-01-04T13:19:29.174Z,84.14
2019-01-04T13:21:37.759Z,84.38
2019-01-04T13:23:43.985Z,84.57
2019-01-04T13:25:50.386Z,84.52
2019-01-04T13:27:56.401Z,84.31
2019-01-04T13:30:02.566Z,84.09
2019-01-04T13:32:10.897Z,84.16
2019-01-04T13:34:16.778Z,84.54
2019-01-04T13:36:22.539Z,84.57
2019-01-04T13:38:28.278Z,84.40
2019-01-04T13:40:33.914Z,84.35
2019-01-04T13:42:40.858Z,84.44
2019-01-04T13:44:48.494Z,84.03
2019-01-04T13:46:56.312Z,84.16
2019-01-04T13:49:06.514Z,84.54
2019-01-04T13:51:12.341Z,84.62
2019-01-04T13:53:19.182Z,84.47
2019-01-04T13:55:25.143Z,83.98
2019-01-04T13:57:33.105Z,83.76
2019-01-04T13:59:58.035Z,84.33
2019-01-04T14:02:07.669Z,84.53
2019-01-04T14:04:13.513Z,84.58
2019-01-04T14:06:19.957Z,84.35
2019-01-04T14:08:44.648Z,84.25
2019-01-04T14:10:50.416Z,84.50
2019-01-04T14:12:56.064Z,84.29
2019-01-04T14:15:01.720Z,84.16
2019-01-04T14:17:07.775Z,84.43
2019-01-04T14:19:33.185Z,84.61
2019-01-04T14:21:50.601Z,84.64
2019-01-04T14:23:56.340Z,84.79
2019-01-04T14:26:21.008Z,84.93
2019-01-04T14:29:05.749Z,84.62
2019-01-04T14:31:11.471Z,84.92
2019-01-04T14:33:17.239Z,84.24
2019-01-04T14:35:23.862Z,84.74
2019-01-04T14:37:30.021Z,84.74
2019-01-04T14:39:35.702Z,84.91
2019-01-04T14:41:42.648Z,84.72
2019-01-04T14:43:48.771Z,84.75
2019-01-04T14:45:54.776Z,85.16
2019-01-04T14:48:00.513Z,85.46
2019-01-04T14:50:08.440Z,85.70
2019-01-04T14:52:35.249Z,85.32
2019-01-04T14:54:41.751Z,85.13
2019-01-04T14:56:47.755Z,85.15
2019-01-04T14:58:53.505Z,85.36
2019-01-04T15:00:59.464Z,85.59
2019-01-04T15:03:06.516Z,85.78
2019-01-04T15:05:34.796Z,85.67
2019-01-04T15:07:41.616Z,85.68
2019-01-04T15:09:47.225Z,85.97
2019-01-04T15:11:53.974Z,86.30
2019-01-04T15:13:59.639Z,86.33
2019-01-04T15:16:05.315Z,86.54
2019-01-04T15:20:37.606Z,86.50
2019-01-04T15:22:43.629Z,86.69
2019-01-04T15:24:49.656Z,86.47
2019-01-04T15:27:14.430Z,86.50
2019-01-04T15:29:20.409Z,86.59
2019-01-04T15:31:26.151Z,86.78
2019-01-04T15:33:51.348Z,86.91
2019-01-04T15:35:57.022Z,86.97
2019-01-04T15:38:06.966Z,87.12
2019-01-04T15:40:31.702Z,87.12
2019-01-04T15:42:38.711Z,87.13
2019-01-04T15:45:03.400Z,87.04
2019-01-04T15:47:09.532Z,87.10
2019-01-04T15:49:16.301Z,87.28
2019-01-04T15:51:45.232Z,87.46
2019-01-04T15:53:52.260Z,87.51
2019-01-04T15:55:57.925Z,87.63
2019-01-04T15:58:04.053Z,87.61
2019-01-04T16:00:12.775Z,87.56
2019-01-04T16:02:18.945Z,87.77
2019-01-04T16:04:38.148Z,87.88
2019-01-04T16:06:44.005Z,87.97
2019-01-04T16:08:50.141Z,87.99
2019-01-04T16:10:55.882Z,88.02
2019-01-04T16:13:02.372Z,88.02
2019-01-04T16:15:27.421Z,87.86
2019-01-04T16:17:33.112Z,87.69
2019-01-04T16:19:59.897Z,87.51
2019-01-04T16:22:05.547Z,87.48
2019-01-04T16:24:12.818Z,87.35
2019-01-04T16:26:18.497Z,87.14
2019-01-04T16:28:27.105Z,87.16
2019-01-04T16:30:32.927Z,87.25
2019-01-04T16:32:38.640Z,87.46
2019-01-04T16:35:03.306Z,87.61
2019-01-04T16:37:48.986Z,87.56
2019-01-04T16:40:13.719Z,87.22
2019-01-04T16:42:30.766Z,87.35
2019-01-04T16:44:36.406Z,87.48
2019-01-04T16:46:45.123Z,87.29
2019-01-04T16:48:52.831Z,87.26
2019-01-04T16:50:58.494Z,87.14
2019-01-04T16:53:04.179Z,87.21
2019-01-04T16:55:11.447Z,87.17
2019-01-04T16:57:17.842Z,86.84
2019-01-04T16:59:23.527Z,86.81
2019-01-04T17:01:29.200Z,87.08
2019-01-04T17:03:34.842Z,86.88
2019-01-04T17:05:44.120Z,86.88
2019-01-04T17:07:49.750Z,86.86
2019-01-04T17:10:14.432Z,86.87
2019-01-04T17:12:20.159Z,87.03
2019-01-04T17:14:26.837Z,87.25
2019-01-04T17:16:35.311Z,87.05
2019-01-04T17:19:00.553Z,86.69
2019-01-04T17:21:07.361Z,86.69
2019-01-04T17:23:15.731Z,86.51
2019-01-04T17:25:21.738Z,86.53
2019-01-04T17:27:46.471Z,86.74
2019-01-04T17:29:52.529Z,86.81
2019-01-04T17:31:58.363Z,86.95
2019-01-04T17:34:04.200Z,86.74
2019-01-04T17:36:09.947Z,86.38
2019-01-04T17:38:34.969Z,86.33
2019-01-04T17:40:52.281Z,86.50
2019-01-04T17:43:18.491Z,86.64
2019-01-04T17:45:37.274Z,86.62
2019-01-04T17:47:32.261Z,86.61
2019-01-04T17:49:39.423Z,86.54
2019-01-04T17:51:45.129Z,86.45
2019-01-04T17:53:51.120Z,86.52
2019-01-04T17:56:15.941Z,86.18
2019-01-04T17:58:21.677Z,86.30
2019-01-04T18:00:27.313Z,86.71
2019-01-04T18:02:33.022Z,86.88
2019-01-04T18:04:59.245Z,87.10
2019-01-04T18:07:20.483Z,87.01
2019-01-04T18:09:26.129Z,87.00
2019-01-04T18:11:34.269Z,87.14
2019-01-04T18:13:39.918Z,87.22
2019-01-04T18:15:47.941Z,87.26
2019-01-04T18:18:12.623Z,87.39
2019-01-04T18:20:20.098Z,86.96
2019-01-04T18:22:27.279Z,86.56
2019-01-04T18:24:52.447Z,86.72
2019-01-04T18:27:10.157Z,86.30
2019-01-04T18:29:16.507Z,85.95
2019-01-04T18:31:23.296Z,86.18
2019-01-04T18:36:00.868Z,86.47
2019-01-04T18:38:06.864Z,86.81
2019-01-04T18:40:13.241Z,86.84
2019-01-04T18:42:37.923Z,86.69
2019-01-04T18:44:44.891Z,86.64
2019-01-04T18:46:50.514Z,86.72
2019-01-04T18:48:56.324Z,86.53
2019-01-04T18:51:21.011Z,86.83
2019-01-04T18:53:26.766Z,86.83
2019-01-04T18:55:32.511Z,86.57
2019-01-04T18:57:57.179Z,86.80
2019-01-04T19:00:02.895Z,87.01
2019-01-04T19:02:08.551Z,87.04
2019-01-04T19:06:40.503Z,86.42
2019-01-04T19:08:59.083Z,86.65
2019-01-04T19:11:05.258Z,86.74
2019-01-04T19:13:10.881Z,86.86
2019-01-04T19:15:19.715Z,86.91
2019-01-04T19:17:25.671Z,86.91
2019-01-04T19:19:31.371Z,86.93
2019-01-04T19:21:37.045Z,86.79
2019-01-04T19:23:42.656Z,86.47
2019-01-04T19:25:51.307Z,86.42
2019-01-04T19:27:56.954Z,86.22
2019-01-04T19:30:02.909Z,86.25
2019-01-04T19:32:08.551Z,86.33
2019-01-04T19:34:14.467Z,86.30
2019-01-04T19:36:44.923Z,86.09
2019-01-04T19:39:06.107Z,85.34
2019-01-04T19:41:01.386Z,84.88
2019-01-04T19:43:26.070Z,85.02
2019-01-04T19:45:31.942Z,85.31
2019-01-04T19:47:39.212Z,85.26
2019-01-04T19:49:45.108Z,85.44
2019-01-04T19:52:12.266Z,85.79
2019-01-04T19:54:18.024Z,85.91
2019-01-04T19:56:23.716Z,85.90
2019-01-04T19:58:49.550Z,85.85
2019-01-04T20:00:56.271Z,85.84
2019-01-04T20:03:02.483Z,85.68
2019-01-04T20:08:54.642Z,85.97
2019-01-04T20:12:23.194Z,86.06
2019-01-04T20:15:39.415Z,86.16
2019-01-04T20:18:09.090Z,86.12
2019-01-04T20:20:38.228Z,86.48
2019-01-04T20:23:21.818Z,86.81
2019-01-04T20:25:47.100Z,87.12
2019-01-04T20:28:11.772Z,87.48
2019-01-04T20:30:36.349Z,87.73
2019-01-04T20:33:07.505Z,87.59
2019-01-04T20:35:32.870Z,87.47
2019-01-04T20:37:58.113Z,87.44
2019-01-04T20:40:25.659Z,87.41
2019-01-04T20:42:50.126Z,87.56
2019-01-04T20:45:21.382Z,87.58
2019-01-04T20:47:47.461Z,87.50
2019-01-04T20:50:18.712Z,87.51
2019-01-04T20:52:43.974Z,87.66
2019-01-04T20:57:49.242Z,88.25
2019-01-04T21:02:54.050Z,88.49
2019-01-04T21:05:19.259Z,88.46
2019-01-04T21:07:41.567Z,88.35
2019-01-04T21:10:31.191Z,88.47
2019-01-04T21:12:54.394Z,88.58
2019-01-04T21:15:25.170Z,88.74
2019-01-04T21:17:52.053Z,88.55
2019-01-04T21:20:28.431Z,88.48
2019-01-04T21:22:53.014Z,88.56
2019-01-04T21:25:32.261Z,88.58
2019-01-04T21:27:56.845Z,88.62
2019-01-04T21:30:21.713Z,88.68
2019-01-04T21:32:46.515Z,88.58
2019-01-04T21:35:30.413Z,88.68
2019-01-04T21:37:56.556Z,88.86
2019-01-04T21:43:00.385Z,89.19
2019-01-04T21:47:58.832Z,88.28
2019-01-04T21:50:23.694Z,87.92
2019-01-04T21:53:06.101Z,87.95
2019-01-04T21:55:36.789Z,88.20
2019-01-04T21:58:01.849Z,88.11
2019-01-04T22:03:11.816Z,88.37
2019-01-04T22:05:42.224Z,88.48
2019-01-04T22:10:33.185Z,88.77
2019-01-04T22:13:03.998Z,88.95
2019-01-04T22:15:47.813Z,89.08
2019-01-04T22:18:12.593Z,89.17
2019-01-04T22:20:56.514Z,89.13
2019-01-04T22:23:40.108Z,88.98
2019-01-04T22:26:05.063Z,89.12
2019-01-04T22:28:29.564Z,89.22
2019-01-04T22:30:56.063Z,89.32
2019-01-04T22:33:20.683Z,89.61
2019-01-04T22:35:48.089Z,89.75
2019-01-04T22:38:15.365Z,89.82
2019-01-04T22:40:40.183Z,89.79
2019-01-04T22:43:23.769Z,89.81
2019-01-04T22:45:49.913Z,89.89
2019-01-04T22:48:19.340Z,89.81
2019-01-04T22:50:44.972Z,89.60
2019-01-04T22:53:10.876Z,89.56
2019-01-04T22:55:35.691Z,89.52
2019-01-04T22:58:00.750Z,89.60
2019-01-04T23:00:52.213Z,89.76
2019-01-04T23:03:17.817Z,89.95
2019-01-04T23:05:42.475Z,90.13
2019-01-04T23:08:13.432Z,90.13
2019-01-04T23:10:39.008Z,90.14
2019-01-04T23:13:17.805Z,90.17
2019-01-04T23:18:12.847Z,90.44
2019-01-04T23:20:40.290Z,90.49
2019-01-04T23:23:05.975Z,90.47
2019-01-04T23:25:29.181Z,90.44
2019-01-04T23:28:13.097Z,90.47
2019-01-04T23:30:37.561Z,90.34
2019-01-04T23:32:58.480Z,90.36
2019-01-04T23:35:26.185Z,90.30
2019-01-04T23:37:52.769Z,90.19
2019-01-04T23:40:19.538Z,90.28
2019-01-04T23:42:59.319Z,90.39
2019-01-04T23:45:24.977Z,90.38
2019-01-04T23:47:49.459Z,90.40
2019-01-04T23:50:25.931Z,90.42
2019-01-04T23:53:09.501Z,90.52
2019-01-04T23:58:14.115Z,90.61
